createdAt,value
2023-01-23T00:01:18.590Z,77.44
2023-01-23T00:02:18.587Z,79.27
2023-01-23T00:03:18.534Z,76.16
2023-01-23T00:04:18.601Z,78.38
2023-01-23T00:05:18.482Z,78.71
2023-01-23T00:06:18.460Z,79.28
2023-01-23T00:07:18.430Z,76.91
2023-01-23T00:08:18.398Z,77.90
2023-01-23T00:09:18.470Z,76.20
2023-01-23T00:10:18.837Z,76.51
2023-01-23T00:11:18.335Z,77.70
2023-01-23T00:13:18.294Z,76.88
2023-01-23T00:14:18.277Z,77.40
2023-01-23T00:15:18.246Z,76.71
2023-01-23T00:16:18.230Z,77.60
2023-01-23T00:17:18.200Z,77.74
2023-01-23T00:18:18.190Z,75.37
2023-01-23T00:19:18.156Z,76.79
2023-01-23T00:20:18.390Z,76.71
2023-01-23T00:21:18.102Z,78.39
2023-01-23T00:22:18.087Z,77.95
2023-01-23T00:23:18.059Z,78.17
2023-01-23T00:24:18.049Z,77.44
2023-01-23T00:25:18.103Z,79.32
2023-01-23T00:26:18.012Z,78.20
2023-01-23T00:27:17.965Z,78.81
2023-01-23T00:29:17.923Z,78.25
2023-01-23T00:30:18.188Z,77.77
2023-01-23T00:31:18.038Z,77.26
2023-01-23T00:32:17.844Z,76.16
2023-01-23T00:33:17.826Z,78.74
2023-01-23T00:34:17.809Z,78.33
2023-01-23T00:35:17.791Z,75.58
2023-01-23T00:36:17.744Z,76.74
2023-01-23T00:37:17.722Z,77.60
2023-01-23T00:38:17.722Z,78.23
2023-01-23T00:39:17.706Z,78.18
2023-01-23T00:40:18.035Z,76.95
2023-01-23T00:41:17.721Z,76.14
2023-01-23T00:42:17.615Z,76.53
2023-01-23T00:43:17.582Z,76.08
2023-01-23T00:44:17.573Z,77.57
2023-01-23T00:45:17.529Z,77.20
2023-01-23T00:46:17.525Z,76.52
2023-01-23T00:47:17.488Z,77.68
2023-01-23T00:48:17.494Z,76.60
2023-01-23T00:49:17.453Z,76.30
2023-01-23T00:50:17.772Z,76.65
2023-01-23T00:51:17.484Z,76.78
2023-01-23T00:52:17.374Z,74.08
2023-01-23T00:53:17.360Z,77.43
2023-01-23T00:54:17.375Z,76.43
2023-01-23T00:55:17.338Z,76.41
2023-01-23T00:56:17.309Z,77.28
2023-01-23T00:57:17.367Z,76.58
2023-01-23T00:58:17.246Z,74.51
2023-01-23T00:59:17.229Z,76.17
2023-01-23T01:00:17.436Z,77.05
2023-01-23T01:01:17.224Z,77.20
2023-01-23T01:02:17.146Z,77.51
2023-01-23T01:03:17.121Z,77.41
2023-01-23T01:04:17.099Z,77.83
2023-01-23T01:05:17.085Z,78.40
2023-01-23T01:06:17.096Z,79.15
2023-01-23T01:07:17.053Z,78.34
2023-01-23T01:08:17.026Z,77.55
2023-01-23T01:09:17.011Z,76.32
2023-01-23T01:10:17.355Z,76.50
2023-01-23T01:11:16.975Z,76.78
2023-01-23T01:12:16.939Z,77.34
2023-01-23T01:13:17.024Z,77.53
2023-01-23T01:14:16.909Z,77.37
2023-01-23T01:15:16.898Z,76.00
2023-01-23T01:16:16.920Z,77.15
2023-01-23T01:17:16.850Z,75.47
2023-01-23T01:18:16.837Z,77.16
2023-01-23T01:19:16.804Z,76.89
2023-01-23T01:20:16.828Z,77.20
2023-01-23T01:21:16.765Z,76.49
2023-01-23T01:22:16.732Z,76.38
2023-01-23T01:23:16.718Z,74.65
2023-01-23T01:24:16.670Z,75.59
2023-01-23T01:25:16.647Z,75.59
2023-01-23T01:26:16.645Z,75.74
2023-01-23T01:27:16.613Z,75.95
2023-01-23T01:28:16.606Z,75.59
2023-01-23T01:29:16.720Z,75.90
2023-01-23T01:30:16.547Z,76.62
2023-01-23T01:31:16.610Z,75.79
2023-01-23T01:32:16.496Z,75.68
2023-01-23T01:33:16.479Z,76.21
2023-01-23T01:34:16.464Z,74.51
2023-01-23T01:35:16.447Z,75.36
2023-01-23T01:36:16.420Z,76.81
2023-01-23T01:37:16.407Z,75.32
2023-01-23T01:38:16.383Z,74.78
2023-01-23T01:39:16.371Z,76.26
2023-01-23T01:40:16.354Z,75.64
2023-01-23T01:41:16.336Z,74.34
2023-01-23T01:42:16.310Z,76.60
2023-01-23T01:43:16.279Z,72.12
2023-01-23T01:44:16.244Z,74.70
2023-01-23T01:45:16.314Z,75.76
2023-01-23T01:46:16.236Z,75.66
2023-01-23T01:47:16.175Z,75.07
2023-01-23T01:48:16.159Z,74.76
2023-01-23T01:49:16.140Z,73.29
2023-01-23T01:50:16.105Z,76.07
2023-01-23T01:51:16.114Z,76.07
2023-01-23T01:52:16.072Z,76.21
2023-01-23T01:53:16.033Z,75.39
2023-01-23T01:54:15.996Z,76.04
2023-01-23T01:55:15.975Z,71.83
2023-01-23T01:56:15.944Z,75.55
2023-01-23T01:57:15.926Z,76.24
2023-01-23T01:58:15.890Z,76.72
2023-01-23T01:59:15.881Z,76.30
2023-01-23T02:00:15.840Z,74.74
2023-01-23T02:01:15.920Z,74.86
2023-01-23T02:02:15.839Z,74.91
2023-01-23T02:03:15.767Z,74.85
2023-01-23T02:04:15.749Z,74.73
2023-01-23T02:05:15.739Z,75.70
2023-01-23T02:06:15.709Z,74.33
2023-01-23T02:07:15.695Z,74.94
2023-01-23T02:08:15.680Z,74.89
2023-01-23T02:09:15.669Z,74.93
2023-01-23T02:10:15.648Z,76.52
2023-01-23T02:11:15.627Z,77.34
2023-01-23T02:12:15.610Z,73.40
2023-01-23T02:13:15.579Z,75.86
2023-01-23T02:14:15.573Z,75.28
2023-01-23T02:15:15.533Z,74.68
2023-01-23T02:16:15.514Z,77.82
2023-01-23T02:17:15.579Z,75.45
2023-01-23T02:18:15.451Z,73.02
2023-01-23T02:19:15.423Z,72.74
2023-01-23T02:20:15.394Z,73.70
2023-01-23T02:21:15.374Z,74.42
2023-01-23T02:22:15.347Z,74.54
2023-01-23T02:23:15.325Z,72.43
2023-01-23T02:24:15.289Z,73.75
2023-01-23T02:25:15.265Z,73.24
2023-01-23T02:26:15.235Z,74.04
2023-01-23T02:27:15.230Z,75.17
2023-01-23T02:28:15.204Z,72.62
2023-01-23T02:29:15.195Z,71.44
2023-01-23T02:30:15.153Z,72.89
2023-01-23T02:31:15.231Z,73.32
2023-01-23T02:32:15.129Z,72.78
2023-01-23T02:33:15.165Z,75.04
2023-01-23T02:34:15.061Z,73.45
2023-01-23T02:35:15.024Z,74.21
2023-01-23T02:36:14.994Z,74.21
2023-01-23T02:37:14.966Z,72.70
2023-01-23T02:38:14.941Z,74.53
2023-01-23T02:39:14.914Z,74.80
2023-01-23T02:40:14.888Z,73.69
2023-01-23T02:41:14.861Z,73.06
2023-01-23T02:42:14.820Z,72.94
2023-01-23T02:43:14.807Z,73.75
2023-01-23T02:44:14.768Z,72.63
2023-01-23T02:45:14.757Z,76.33
2023-01-23T02:46:14.716Z,71.39
2023-01-23T02:47:14.711Z,73.79
2023-01-23T02:48:14.670Z,74.87
2023-01-23T02:49:14.725Z,73.24
2023-01-23T02:50:14.608Z,71.87
2023-01-23T02:51:14.650Z,74.29
2023-01-23T02:52:14.546Z,72.48
2023-01-23T02:53:14.514Z,72.54
2023-01-23T02:54:14.470Z,74.16
2023-01-23T02:55:14.443Z,73.63
2023-01-23T02:56:14.416Z,73.90
2023-01-23T02:57:14.396Z,74.37
2023-01-23T02:58:14.352Z,72.33
2023-01-23T02:59:14.324Z,73.54
2023-01-23T03:00:14.294Z,73.45
2023-01-23T03:01:14.302Z,73.77
2023-01-23T03:02:14.293Z,72.00
2023-01-23T03:03:14.210Z,73.26
2023-01-23T03:04:14.170Z,71.43
2023-01-23T03:05:14.272Z,71.42
2023-01-23T03:06:14.124Z,71.66
2023-01-23T03:07:14.105Z,74.35
2023-01-23T03:08:14.074Z,75.31
2023-01-23T03:09:14.060Z,74.44
2023-01-23T03:10:14.027Z,72.01
2023-01-23T03:11:14.001Z,72.64
2023-01-23T03:12:13.970Z,73.08
2023-01-23T03:13:13.945Z,72.04
2023-01-23T03:14:13.907Z,73.24
2023-01-23T03:15:13.879Z,71.18
2023-01-23T03:16:13.894Z,72.30
2023-01-23T03:17:13.835Z,74.76
2023-01-23T03:18:13.817Z,72.79
2023-01-23T03:19:13.797Z,74.40
2023-01-23T03:20:13.767Z,71.64
2023-01-23T03:21:13.828Z,71.73
2023-01-23T03:22:13.711Z,73.55
2023-01-23T03:23:13.703Z,71.91
2023-01-23T03:24:13.662Z,74.29
2023-01-23T03:25:13.645Z,73.81
2023-01-23T03:26:13.602Z,73.02
2023-01-23T03:27:13.571Z,72.92
2023-01-23T03:28:13.558Z,73.42
2023-01-23T03:29:13.518Z,72.34
2023-01-23T03:30:13.502Z,74.49
2023-01-23T03:31:13.517Z,71.14
2023-01-23T03:32:13.419Z,72.55
2023-01-23T03:33:13.398Z,72.23
2023-01-23T03:34:13.383Z,72.02
2023-01-23T03:35:13.350Z,74.01
2023-01-23T03:36:13.329Z,74.78
2023-01-23T03:37:13.410Z,75.46
2023-01-23T03:38:13.288Z,72.99
2023-01-23T03:39:13.272Z,73.91
2023-01-23T03:40:13.254Z,75.92
2023-01-23T03:41:13.230Z,73.86
2023-01-23T03:42:13.202Z,73.97
2023-01-23T03:43:13.205Z,74.77
2023-01-23T03:44:13.262Z,71.41
2023-01-23T03:45:13.157Z,74.14
2023-01-23T03:46:13.129Z,73.22
2023-01-23T03:47:13.122Z,74.65
2023-01-23T03:48:13.103Z,74.10
2023-01-23T03:49:13.105Z,75.76
2023-01-23T03:50:13.077Z,73.16
2023-01-23T03:51:13.074Z,75.43
2023-01-23T03:52:13.037Z,72.61
2023-01-23T03:53:13.122Z,74.11
2023-01-23T03:54:13.009Z,74.69
2023-01-23T03:55:13.005Z,73.91
2023-01-23T03:56:12.984Z,71.46
2023-01-23T03:57:12.967Z,73.06
2023-01-23T03:58:12.953Z,74.17
2023-01-23T03:59:12.946Z,74.42
2023-01-23T04:00:12.913Z,74.56
2023-01-23T04:01:12.918Z,73.91
2023-01-23T04:02:12.879Z,72.74
2023-01-23T05:22:10.885Z,65.49
2023-01-23T05:23:10.858Z,67.72
2023-01-23T05:24:10.837Z,68.73
2023-01-23T05:25:10.806Z,68.74
2023-01-23T05:26:10.819Z,68.94
2023-01-23T05:27:10.772Z,69.30
2023-01-23T05:28:11.775Z,69.02
2023-01-23T05:29:10.815Z,68.01
2023-01-23T05:30:10.728Z,68.22
2023-01-23T05:31:10.844Z,69.10
2023-01-23T05:32:10.669Z,70.12
2023-01-23T05:33:10.647Z,70.35
2023-01-23T05:34:10.642Z,70.04
2023-01-23T05:35:10.605Z,69.22
2023-01-23T05:36:10.592Z,69.83
2023-01-23T05:37:10.579Z,69.20
2023-01-23T05:38:10.540Z,70.29
2023-01-23T05:39:10.503Z,67.43
2023-01-23T05:40:10.483Z,69.02
2023-01-23T05:41:10.464Z,69.07
2023-01-23T05:42:10.441Z,67.63
2023-01-23T05:43:10.440Z,69.49
2023-01-23T05:44:10.408Z,70.68
2023-01-23T05:45:10.483Z,68.91
2023-01-23T05:46:10.421Z,67.13
2023-01-23T05:47:10.349Z,68.34
2023-01-23T05:48:10.327Z,68.50
2023-01-23T05:49:10.319Z,68.51
2023-01-23T05:50:10.283Z,68.19
2023-01-23T05:51:10.305Z,67.67
2023-01-23T05:52:10.242Z,67.74
2023-01-23T05:53:10.224Z,68.09
2023-01-23T05:54:10.202Z,66.84
2023-01-23T05:55:10.194Z,67.51
2023-01-23T05:56:10.163Z,68.54
2023-01-23T05:57:10.157Z,65.36
2023-01-23T05:58:10.137Z,66.81
2023-01-23T05:59:10.118Z,67.31
2023-01-23T06:00:10.103Z,66.54
2023-01-23T06:01:10.165Z,69.05
2023-01-23T06:02:10.068Z,67.42
2023-01-23T06:03:10.034Z,65.86
2023-01-23T06:04:10.004Z,66.50
2023-01-23T06:05:09.997Z,68.17
2023-01-23T06:06:09.966Z,67.11
2023-01-23T06:07:09.934Z,68.70
2023-01-23T06:08:09.911Z,66.85
2023-01-23T06:09:09.871Z,64.50
2023-01-23T06:10:10.101Z,65.93
2023-01-23T06:11:09.842Z,65.52
2023-01-23T06:12:09.807Z,67.09
2023-01-23T06:13:09.777Z,69.68
2023-01-23T06:14:09.751Z,69.34
2023-01-23T06:15:09.770Z,67.00
2023-01-23T06:16:10.760Z,67.55
2023-01-23T06:17:09.767Z,68.23
2023-01-23T06:18:09.694Z,67.14
2023-01-23T06:19:09.625Z,67.64
2023-01-23T06:20:09.596Z,66.79
2023-01-23T06:21:09.571Z,66.09
2023-01-23T06:22:09.549Z,67.80
2023-01-23T06:23:09.542Z,67.27
2023-01-23T06:24:09.479Z,66.81
2023-01-23T06:25:09.454Z,67.64
2023-01-23T06:26:09.454Z,68.88
2023-01-23T06:27:09.381Z,68.01
2023-01-23T06:28:09.377Z,68.46
2023-01-23T06:29:09.316Z,69.55
2023-01-23T06:30:09.302Z,70.61
2023-01-23T06:31:09.457Z,69.53
2023-01-23T06:32:09.237Z,69.36
2023-01-23T06:33:09.305Z,69.80
2023-01-23T06:34:09.190Z,70.60
2023-01-23T06:35:09.174Z,70.39
2023-01-23T06:36:09.132Z,70.28
2023-01-23T06:37:09.095Z,70.00
2023-01-23T06:38:09.072Z,69.65
2023-01-23T06:39:09.034Z,70.80
2023-01-23T06:40:09.015Z,72.19
2023-01-23T06:41:08.997Z,72.43
2023-01-23T06:42:08.969Z,72.99
2023-01-23T06:43:08.953Z,72.36
2023-01-23T06:44:08.935Z,73.25
2023-01-23T06:49:08.867Z,73.44
2023-01-23T10:40:00.768Z,179.38
2023-01-23T11:19:59.120Z,186.18
2023-01-23T11:20:59.161Z,180.13
2023-01-23T11:21:59.039Z,179.29
2023-01-23T11:22:58.999Z,177.46
2023-01-23T11:24:58.946Z,178.25
2023-01-23T11:25:58.961Z,178.12
2023-01-23T12:58:00.021Z,169.52
2023-01-23T12:58:55.631Z,169.65
2023-01-23T12:59:54.569Z,170.43
2023-01-23T13:00:54.592Z,169.92
2023-01-23T13:01:54.525Z,164.67
2023-01-23T13:02:54.441Z,169.53
2023-01-23T13:03:54.394Z,168.39
2023-01-23T13:04:54.356Z,169.83
2023-01-23T13:05:54.303Z,167.56
2023-01-23T13:06:54.276Z,165.86
2023-01-23T13:07:54.230Z,162.32
2023-01-23T13:09:05.318Z,162.85
2023-01-23T13:09:55.152Z,162.92
2023-01-23T13:10:54.097Z,163.31
2023-01-23T13:11:54.100Z,163.98
2023-01-23T13:12:54.010Z,164.19
2023-01-23T13:13:53.982Z,160.25
2023-01-23T13:15:13.423Z,156.24
2023-01-23T13:15:54.894Z,156.41
2023-01-23T13:16:53.904Z,156.96
2023-01-23T13:17:53.839Z,157.22
2023-01-23T13:18:53.799Z,159.58
2023-01-23T13:19:53.746Z,154.35
2023-01-23T13:20:53.706Z,153.56
2023-01-23T13:21:53.657Z,153.08
2023-01-23T13:22:53.630Z,151.16
2023-01-23T13:23:53.582Z,154.26
2023-01-23T13:24:53.556Z,153.61
2023-01-23T13:25:53.516Z,150.33
2023-01-23T13:26:53.483Z,148.88
2023-01-23T13:27:53.441Z,150.94
2023-01-23T13:28:53.492Z,149.20
2023-01-23T13:29:53.367Z,150.88
2023-01-23T13:30:53.340Z,150.54
2023-01-23T13:31:53.392Z,146.78
2023-01-23T13:32:53.262Z,143.33
2023-01-23T13:33:55.318Z,147.45
2023-01-23T13:34:54.258Z,147.50
2023-01-23T13:35:53.166Z,147.72
2023-01-23T13:36:53.165Z,147.79
2023-01-23T13:37:53.106Z,147.47
2023-01-23T13:38:53.062Z,143.69
2023-01-23T13:40:01.548Z,144.87
2023-01-23T13:40:53.986Z,144.42
2023-01-23T13:41:52.966Z,145.95
2023-01-23T13:42:52.907Z,144.74
2023-01-23T13:43:52.864Z,147.49
2023-01-23T13:44:54.525Z,140.52
2023-01-23T13:45:52.964Z,143.16
2023-01-23T13:46:52.755Z,141.65
2023-01-23T13:47:52.698Z,142.42
2023-01-23T13:48:52.651Z,143.49
2023-01-23T13:49:52.602Z,140.18
2023-01-23T13:50:52.560Z,138.89
2023-01-23T13:51:52.529Z,137.89
2023-01-23T13:52:52.477Z,138.67
2023-01-23T13:53:52.436Z,139.67
2023-01-23T13:54:52.383Z,139.36
2023-01-23T13:55:52.349Z,136.19
2023-01-23T13:56:52.307Z,136.38
2023-01-23T13:57:52.275Z,135.05
2023-01-23T13:58:52.223Z,135.91
2023-01-23T13:59:52.171Z,138.44
2023-01-23T14:00:52.224Z,136.67
2023-01-23T14:01:52.097Z,134.45
2023-01-23T14:02:52.073Z,133.29
2023-01-23T14:03:52.048Z,136.02
2023-01-23T14:04:52.002Z,134.77
2023-01-23T14:05:51.962Z,133.77
2023-01-23T14:06:51.920Z,133.99
2023-01-23T14:07:51.899Z,134.15
2023-01-23T14:08:51.842Z,134.43
2023-01-23T14:09:51.801Z,132.16
2023-01-23T14:10:51.772Z,135.79
2023-01-23T14:11:51.726Z,135.53
2023-01-23T14:12:51.690Z,133.87
2023-01-23T14:13:51.656Z,133.74
2023-01-23T14:14:51.613Z,134.62
2023-01-23T14:15:51.570Z,134.68
2023-01-23T14:16:51.643Z,133.80
2023-01-23T14:17:51.515Z,134.78
2023-01-23T14:18:51.450Z,131.68
2023-01-23T14:19:51.425Z,132.33
2023-01-23T14:20:51.379Z,132.31
2023-01-23T14:21:51.342Z,133.02
2023-01-23T14:22:51.329Z,132.37
2023-01-23T14:23:51.276Z,130.19
2023-01-23T14:24:51.239Z,130.28
2023-01-23T14:25:51.203Z,130.38
2023-01-23T14:26:51.164Z,130.70
2023-01-23T14:27:53.996Z,130.74
2023-01-23T14:28:51.085Z,132.77
2023-01-23T14:29:51.054Z,131.77
2023-01-23T14:30:51.054Z,130.14
2023-01-23T14:31:51.148Z,130.44
2023-01-23T14:32:51.024Z,128.30
2023-01-23T14:33:52.475Z,130.54
2023-01-23T14:34:50.845Z,131.69
2023-01-23T14:35:50.800Z,127.24
2023-01-23T14:36:50.762Z,129.36
2023-01-23T14:37:50.735Z,128.47
2023-01-23T14:38:50.664Z,131.63
2023-01-23T14:39:53.822Z,128.20
2023-01-23T14:40:51.424Z,128.21
2023-01-23T14:41:50.556Z,126.51
2023-01-23T14:42:50.508Z,129.03
2023-01-23T14:43:50.465Z,125.87
2023-01-23T14:44:50.424Z,128.31
2023-01-23T14:45:50.394Z,128.36
2023-01-23T14:46:50.353Z,128.34
2023-01-23T14:47:59.713Z,128.25
2023-01-23T14:48:51.377Z,128.28
2023-01-23T14:49:50.234Z,128.48
2023-01-23T14:50:50.199Z,128.11
2023-01-23T14:51:50.162Z,127.40
2023-01-23T14:52:50.226Z,125.16
2023-01-23T14:53:50.079Z,126.32
2023-01-23T14:54:54.116Z,125.39
2023-01-23T14:55:50.009Z,125.50
2023-01-23T14:56:49.976Z,125.77
2023-01-23T14:57:49.948Z,124.44
2023-01-23T14:58:49.918Z,125.06
2023-01-23T14:59:49.882Z,125.68
2023-01-23T15:00:49.919Z,123.89
2023-01-23T15:01:49.801Z,122.43
2023-01-23T15:02:49.838Z,124.03
2023-01-23T15:03:49.721Z,123.32
2023-01-23T15:04:49.682Z,121.55
2023-01-23T15:05:49.657Z,121.99
2023-01-23T15:06:49.611Z,121.18
2023-01-23T15:07:49.605Z,122.67
2023-01-23T15:08:49.533Z,118.27
2023-01-23T15:09:49.502Z,122.46
2023-01-23T15:10:49.448Z,120.16
2023-01-23T15:11:49.416Z,122.34
2023-01-23T15:12:49.373Z,123.23
2023-01-23T15:13:49.344Z,119.93
2023-01-23T15:14:49.289Z,119.40
2023-01-23T15:15:49.252Z,121.63
2023-01-23T15:16:49.269Z,120.60
2023-01-23T15:17:49.187Z,120.72
2023-01-23T15:18:49.161Z,117.97
2023-01-23T15:19:49.126Z,118.10
2023-01-23T15:20:49.189Z,118.52
2023-01-23T15:21:49.062Z,118.85
2023-01-23T15:22:49.027Z,119.34
2023-01-23T15:23:49.064Z,120.52
2023-01-23T15:24:48.962Z,120.39
2023-01-23T15:25:57.477Z,119.23
2023-01-23T15:26:49.886Z,119.42
2023-01-23T18:14:43.121Z,122.42
2023-01-23T18:15:43.091Z,120.97
2023-01-23T18:17:43.330Z,121.25
2023-01-23T18:18:43.005Z,121.45
2023-01-23T18:19:42.978Z,120.44
2023-01-23T18:20:42.958Z,121.90
2023-01-23T18:22:42.907Z,119.63
2023-01-23T18:23:42.904Z,119.76
2023-01-23T18:24:42.842Z,122.95
2023-01-23T18:25:42.801Z,120.62
2023-01-23T18:26:42.778Z,120.45
2023-01-23T18:27:42.725Z,122.78
2023-01-23T18:28:42.701Z,120.29
2023-01-23T18:29:42.662Z,120.94
2023-01-23T18:30:42.634Z,118.55
2023-01-23T18:31:42.634Z,121.02
2023-01-23T18:33:42.564Z,121.93
2023-01-23T18:34:42.519Z,119.66
2023-01-23T18:35:42.495Z,120.30
2023-01-23T18:36:42.466Z,121.47
2023-01-23T18:37:42.444Z,118.55
2023-01-23T18:38:42.414Z,119.73
2023-01-23T18:39:42.386Z,120.72
2023-01-23T18:40:42.371Z,119.76
2023-01-23T18:41:42.310Z,117.74
2023-01-23T18:42:42.287Z,119.35
2023-01-23T18:43:42.237Z,119.62
2023-01-23T18:44:42.211Z,120.95
2023-01-23T18:45:42.205Z,116.34
2023-01-23T19:11:41.279Z,116.70
2023-01-23T19:26:40.799Z,115.06
2023-01-23T19:27:40.768Z,117.94
2023-01-23T19:28:40.747Z,116.36
2023-01-23T19:29:40.724Z,115.99
2023-01-23T19:30:40.730Z,114.83
2023-01-23T19:31:40.808Z,115.06
2023-01-23T19:32:42.620Z,115.35
2023-01-23T19:33:40.587Z,116.71
2023-01-23T19:34:40.572Z,117.17
2023-01-23T19:35:40.524Z,114.69
2023-01-23T19:36:40.588Z,115.39
2023-01-23T19:37:40.472Z,114.30
2023-01-23T19:38:40.433Z,117.09
2023-01-23T19:39:40.410Z,115.66
2023-01-23T19:40:40.381Z,113.41
2023-01-23T19:41:40.348Z,115.37
2023-01-23T19:42:52.501Z,114.94
2023-01-23T19:43:41.280Z,115.11
2023-01-23T19:44:40.236Z,115.39
2023-01-23T19:45:41.135Z,115.31
2023-01-23T19:46:40.179Z,115.83
2023-01-23T19:47:40.137Z,115.70
2023-01-23T19:48:40.085Z,115.42
2023-01-23T19:49:40.047Z,115.42
2023-01-23T19:50:40.015Z,115.87
2023-01-23T19:51:39.984Z,115.16
2023-01-23T19:52:39.951Z,115.67
2023-01-23T19:53:39.917Z,114.35
2023-01-23T19:54:39.897Z,116.01
2023-01-23T19:55:39.857Z,113.14
2023-01-23T19:56:39.896Z,114.36
2023-01-23T19:57:39.813Z,114.08
2023-01-23T19:58:39.792Z,114.23
2023-01-23T19:59:39.764Z,114.54
2023-01-23T20:00:39.734Z,115.00
2023-01-23T20:01:39.708Z,113.62
2023-01-23T20:02:39.685Z,113.77
2023-01-23T20:03:39.629Z,113.83
2023-01-23T20:04:39.602Z,114.47
2023-01-23T20:05:39.573Z,112.49
2023-01-23T20:06:39.529Z,113.19
2023-01-23T20:07:39.522Z,115.05
2023-01-23T20:08:39.640Z,113.05
2023-01-23T20:09:39.466Z,112.91
2023-01-23T20:10:39.412Z,112.25
2023-01-23T20:11:39.371Z,112.64
2023-01-23T20:12:39.360Z,114.05
2023-01-23T20:13:39.321Z,112.39
2023-01-23T20:14:39.292Z,114.37
2023-01-23T20:15:39.260Z,113.21
2023-01-23T20:16:39.249Z,111.29
2023-01-23T20:17:39.187Z,110.61
2023-01-23T20:18:39.181Z,110.46
2023-01-23T20:19:39.114Z,113.66
2023-01-23T20:20:39.107Z,113.53
2023-01-23T20:21:39.065Z,112.69
2023-01-23T20:22:39.047Z,112.80
2023-01-23T20:23:39.009Z,111.29
2023-01-23T20:24:39.068Z,109.72
2023-01-23T20:25:38.947Z,112.47
2023-01-23T20:26:38.939Z,111.26
2023-01-23T20:27:38.891Z,112.40
2023-01-23T21:13:37.434Z,107.47
2023-01-23T21:14:37.411Z,108.07
2023-01-23T21:15:37.389Z,106.66
2023-01-23T21:16:37.333Z,107.69
2023-01-23T21:17:37.295Z,108.25
2023-01-23T21:18:37.272Z,108.34
2023-01-23T21:19:37.233Z,108.55
2023-01-23T21:20:39.288Z,108.92
2023-01-23T21:21:37.411Z,110.00
2023-01-23T21:22:37.379Z,108.82
2023-01-23T21:23:38.160Z,106.06
2023-01-23T21:24:37.319Z,108.82
2023-01-23T21:25:37.292Z,106.27
2023-01-23T21:26:37.273Z,105.54
2023-01-23T21:27:37.237Z,109.05
2023-01-23T21:28:37.297Z,107.00
2023-01-23T21:29:37.182Z,106.34
2023-01-23T21:30:37.177Z,107.13
2023-01-23T21:31:37.284Z,108.98
2023-01-23T21:32:37.092Z,106.94
2023-01-23T21:33:37.052Z,107.57
2023-01-23T21:34:37.046Z,107.57
2023-01-23T21:35:37.012Z,106.61
2023-01-23T21:36:36.973Z,105.71
2023-01-23T21:37:36.945Z,107.07
2023-01-23T21:38:36.924Z,105.87
2023-01-23T21:39:36.892Z,106.19
2023-01-23T21:40:36.855Z,107.98
2023-01-23T21:41:36.816Z,107.65
2023-01-23T21:42:36.790Z,108.02
2023-01-23T21:43:36.764Z,106.27
2023-01-23T21:44:36.827Z,104.37
2023-01-23T21:45:36.697Z,106.32
2023-01-23T21:46:36.722Z,106.43
2023-01-23T21:47:36.638Z,106.71
2023-01-23T21:48:36.621Z,106.09
2023-01-23T21:49:36.573Z,104.98
2023-01-23T21:50:36.533Z,104.82
2023-01-23T21:51:36.504Z,103.68
2023-01-23T21:52:36.463Z,105.28
2023-01-23T21:53:36.428Z,103.47
2023-01-23T21:54:36.396Z,104.73
2023-01-23T21:55:36.359Z,104.96
2023-01-23T21:56:36.332Z,104.20
2023-01-23T21:57:36.275Z,105.47
2023-01-23T21:58:36.247Z,104.75
2023-01-23T21:59:36.207Z,103.17
2023-01-23T22:00:36.270Z,101.86
2023-01-23T22:01:36.347Z,104.38
2023-01-23T22:02:36.124Z,103.69
2023-01-23T22:03:36.074Z,102.81
2023-01-23T22:04:36.068Z,104.25
2023-01-23T22:05:35.980Z,103.89
2023-01-23T22:06:35.952Z,102.77
2023-01-23T22:07:35.930Z,104.12
2023-01-23T22:08:35.870Z,103.39
2023-01-23T22:09:35.849Z,105.84
2023-01-23T22:10:35.813Z,102.37
2023-01-23T22:11:35.757Z,104.93
2023-01-23T22:12:35.725Z,104.40
2023-01-23T22:13:35.691Z,103.32
2023-01-23T22:14:35.655Z,104.22
2023-01-23T22:15:35.633Z,103.32
2023-01-23T22:16:47.882Z,100.79
2023-01-23T22:17:36.564Z,101.04
2023-01-23T22:18:35.524Z,101.13
2023-01-23T22:19:35.484Z,102.26
2023-01-23T22:20:35.518Z,102.05
2023-01-23T22:21:35.407Z,101.73
2023-01-23T22:22:35.381Z,105.90
2023-01-23T22:23:35.341Z,104.78
2023-01-23T22:24:35.313Z,105.35
2023-01-23T22:25:35.278Z,102.53
2023-01-23T22:26:35.244Z,101.97
2023-01-23T22:27:35.212Z,104.38
2023-01-23T22:28:35.171Z,102.28
2023-01-23T22:29:35.130Z,102.19
2023-01-23T22:30:35.145Z,103.35
2023-01-23T22:31:35.102Z,102.65
2023-01-23T22:32:35.103Z,102.50
2023-01-23T22:33:40.479Z,102.75
2023-01-23T22:34:35.938Z,102.91
2023-01-23T22:35:34.926Z,103.02
2023-01-23T22:36:34.968Z,101.65
2023-01-23T22:37:34.821Z,100.59
2023-01-23T22:38:34.791Z,102.80
2023-01-23T22:39:34.751Z,103.68
2023-01-23T22:40:34.721Z,101.06
2023-01-23T22:41:34.688Z,102.95
2023-01-23T22:42:34.657Z,101.14
2023-01-23T22:43:34.612Z,100.60
2023-01-23T22:44:34.583Z,98.98
2023-01-23T22:45:34.545Z,100.92
2023-01-23T22:46:34.626Z,99.96
2023-01-23T22:47:34.477Z,102.51
2023-01-23T22:48:34.554Z,102.59
2023-01-23T22:49:34.401Z,102.88
2023-01-23T22:50:34.394Z,102.91
2023-01-23T22:51:34.374Z,99.46
2023-01-23T22:52:34.304Z,99.67
2023-01-23T22:53:34.300Z,100.04
2023-01-23T22:54:34.242Z,100.41
2023-01-23T22:55:34.214Z,101.12
2023-01-23T22:56:34.179Z,102.35
2023-01-23T22:57:34.151Z,99.64
2023-01-23T22:58:34.119Z,99.92
2023-01-23T22:59:34.105Z,100.25
2023-01-23T23:00:34.106Z,100.39
2023-01-23T23:01:34.056Z,99.36
2023-01-23T23:02:34.059Z,100.37
2023-01-23T23:03:33.998Z,100.45
2023-01-23T23:04:34.071Z,99.44
2023-01-23T23:05:33.936Z,101.64
2023-01-23T23:06:33.896Z,101.22
2023-01-23T23:07:33.903Z,100.77
2023-01-23T23:08:33.855Z,98.17
2023-01-23T23:09:33.845Z,99.14
2023-01-23T23:10:33.888Z,100.51
2023-01-23T23:11:33.769Z,98.74
2023-01-23T23:12:33.753Z,99.64
2023-01-23T23:13:33.734Z,97.01
2023-01-23T23:14:33.677Z,97.91
2023-01-23T23:15:33.685Z,96.48
2023-01-23T23:16:33.685Z,97.96
2023-01-23T23:17:33.622Z,99.61
2023-01-23T23:18:33.567Z,98.94
2023-01-23T23:19:33.540Z,97.97
2023-01-23T23:20:33.613Z,94.83
2023-01-23T23:21:33.495Z,97.37
2023-01-23T23:22:33.471Z,98.78
2023-01-23T23:23:33.442Z,98.08
2023-01-23T23:24:33.412Z,99.10
2023-01-23T23:25:33.408Z,98.78
2023-01-23T23:26:34.211Z,97.09
2023-01-23T23:27:33.365Z,98.42
2023-01-23T23:28:33.347Z,97.57
2023-01-23T23:29:33.357Z,98.36
2023-01-23T23:30:33.309Z,96.42
2023-01-23T23:31:33.402Z,98.35
2023-01-23T23:32:33.230Z,96.65
2023-01-23T23:33:33.206Z,96.82
2023-01-23T23:34:34.657Z,96.74
2023-01-23T23:35:33.149Z,97.21
2023-01-23T23:36:33.238Z,97.93
2023-01-23T23:37:33.150Z,95.23
2023-01-23T23:38:33.079Z,96.17
2023-01-23T23:39:33.049Z,96.90
2023-01-23T23:40:33.023Z,97.82
2023-01-23T23:41:32.995Z,95.91
2023-01-23T23:42:32.962Z,97.04
2023-01-23T23:43:32.937Z,97.66
2023-01-23T23:44:32.911Z,94.02
2023-01-23T23:45:32.910Z,97.21
2023-01-23T23:46:32.865Z,97.54
2023-01-23T23:47:32.809Z,94.95
2023-01-23T23:48:32.771Z,94.43
2023-01-23T23:49:32.740Z,94.58
2023-01-23T23:50:32.709Z,94.93
2023-01-23T23:51:32.700Z,95.46
2023-01-23T23:52:32.771Z,95.56
2023-01-23T23:53:32.632Z,94.01
2023-01-23T23:54:32.623Z,94.80
2023-01-23T23:55:32.564Z,95.35
2023-01-23T23:56:32.554Z,94.61
2023-01-23T23:57:32.508Z,96.48
2023-01-23T23:58:32.485Z,94.67
2023-01-23T23:59:32.450Z,95.29
